createdAt,value
2022-09-05T00:00:31.159Z,21.26
2022-09-05T00:03:14.557Z,21.22
2022-09-05T00:06:03.624Z,21.15
2022-09-05T00:08:44.143Z,21.11
2022-09-05T00:11:42.785Z,21.07
2022-09-05T00:14:35.277Z,20.99
2022-09-05T00:18:11.976Z,20.95
2022-09-05T00:24:26.075Z,20.90
2022-09-05T00:24:30.904Z,20.88
2022-09-05T00:26:23.125Z,20.82
2022-09-05T00:29:01.944Z,20.77
2022-09-05T00:31:54.603Z,20.73
2022-09-05T00:34:47.901Z,20.69
2022-09-05T00:37:32.109Z,20.66
2022-09-05T00:40:21.610Z,20.64
2022-09-05T00:42:54.617Z,20.65
2022-09-05T00:45:32.782Z,20.62
2022-09-05T00:48:15.273Z,20.60
2022-09-05T00:51:01.797Z,20.58
2022-09-05T00:53:43.093Z,20.56
2022-09-05T00:56:33.936Z,20.52
2022-09-05T00:59:43.386Z,20.50
2022-09-05T01:02:51.246Z,20.48
2022-09-05T01:05:44.742Z,20.45
2022-09-05T01:08:46.409Z,20.41
2022-09-05T01:11:28.606Z,20.40
2022-09-05T01:14:12.995Z,20.38
2022-09-05T01:17:16.717Z,20.34
2022-09-05T01:20:19.081Z,20.31
2022-09-05T01:23:51.312Z,20.26
2022-09-05T01:26:52.926Z,20.23
2022-09-05T01:29:29.029Z,20.22
2022-09-05T01:32:28.404Z,20.18
2022-09-05T01:35:22.923Z,20.15
2022-09-05T01:37:58.732Z,20.12
2022-09-05T01:40:35.491Z,20.11
2022-09-05T01:43:19.230Z,20.06
2022-09-05T01:45:52.626Z,20.04
2022-09-05T01:48:34.861Z,20.01
2022-09-05T01:51:29.561Z,19.99
2022-09-05T01:54:24.632Z,19.94
2022-09-05T01:57:09.214Z,19.90
2022-09-05T01:59:48.292Z,19.88
2022-09-05T02:02:33.337Z,19.84
2022-09-05T02:05:48.178Z,19.79
2022-09-05T02:08:48.960Z,19.74
2022-09-05T02:11:34.924Z,19.71
2022-09-05T02:14:12.000Z,19.65
2022-09-05T02:16:56.885Z,19.63
2022-09-05T02:19:32.528Z,19.59
2022-09-05T02:22:08.875Z,19.55
2022-09-05T02:24:39.565Z,19.51
2022-09-05T02:27:30.227Z,19.47
2022-09-05T02:30:12.620Z,19.43
2022-09-05T02:32:49.624Z,19.40
2022-09-05T02:35:29.582Z,19.35
2022-09-05T02:41:47.174Z,19.31
2022-09-05T02:45:12.661Z,19.26
2022-09-05T02:45:13.702Z,19.21
2022-09-05T02:46:55.794Z,19.16
2022-09-05T02:57:11.206Z,19.13
2022-09-05T02:57:28.115Z,19.09
2022-09-05T02:57:37.224Z,19.05
2022-09-05T02:59:05.816Z,19.02
2022-09-05T03:01:53.143Z,18.97
2022-09-05T03:04:34.802Z,18.92
2022-09-05T03:07:29.337Z,18.89
2022-09-05T03:10:39.659Z,18.84
2022-09-05T03:13:58.995Z,18.80
2022-09-05T03:17:16.330Z,18.74
2022-09-05T03:20:42.097Z,18.70
2022-09-05T03:23:59.830Z,18.66
2022-09-05T03:27:37.263Z,18.65
2022-09-05T03:30:14.915Z,18.62
2022-09-05T03:33:36.846Z,18.60
2022-09-05T03:37:07.022Z,18.55
2022-09-05T03:40:16.347Z,18.52
2022-09-05T03:43:03.803Z,18.51
2022-09-05T03:45:59.822Z,18.49
2022-09-05T03:50:47.904Z,18.48
2022-09-05T03:57:11.159Z,18.44
2022-09-05T03:57:25.522Z,18.41
2022-09-05T03:58:56.232Z,18.38
2022-09-05T04:04:27.464Z,18.35
2022-09-05T04:08:17.040Z,18.31
2022-09-05T04:08:18.932Z,18.33
2022-09-05T04:10:29.408Z,18.27
2022-09-05T04:13:03.974Z,18.25
2022-09-05T04:15:39.880Z,18.22
2022-09-05T04:18:33.504Z,18.17
2022-09-05T04:21:09.629Z,18.15
2022-09-05T04:24:02.416Z,18.10
2022-09-05T04:27:00.524Z,18.06
2022-09-05T04:29:43.865Z,18.03
2022-09-05T04:32:24.868Z,18.01
2022-09-05T04:35:15.450Z,17.98
2022-09-05T04:37:55.237Z,17.95
2022-09-05T04:40:41.317Z,17.92
2022-09-05T04:43:20.897Z,17.89
2022-09-05T04:45:54.598Z,17.87
2022-09-05T04:48:28.039Z,17.86
2022-09-05T04:51:08.307Z,17.83
2022-09-05T04:54:07.862Z,17.80
2022-09-05T04:56:42.728Z,17.78
2022-09-05T05:02:33.559Z,17.76
2022-09-05T05:06:02.739Z,17.74
2022-09-05T05:06:11.905Z,17.76
2022-09-05T05:08:31.742Z,17.73
2022-09-05T05:13:33.574Z,17.76
2022-09-05T05:17:56.050Z,17.76
2022-09-05T05:18:07.039Z,17.77
2022-09-05T05:20:41.829Z,17.78
2022-09-05T05:23:07.546Z,17.80
2022-09-05T05:25:50.458Z,17.83
2022-09-05T05:28:28.583Z,17.86
2022-09-05T05:31:01.828Z,17.90
2022-09-05T05:33:36.413Z,17.92
2022-09-05T05:36:08.372Z,17.95
2022-09-05T05:38:45.032Z,17.99
2022-09-05T05:41:22.484Z,18.02
2022-09-05T05:43:52.597Z,18.06
2022-09-05T05:46:36.425Z,18.09
2022-09-05T05:49:28.292Z,18.16
2022-09-05T05:52:24.567Z,18.22
2022-09-05T05:55:14.065Z,18.29
2022-09-05T05:58:15.562Z,18.32
2022-09-05T06:01:41.706Z,18.34
2022-09-05T06:05:16.260Z,18.40
2022-09-05T06:09:14.123Z,18.48
2022-09-05T06:15:00.481Z,18.52
2022-09-05T06:15:26.626Z,18.58
2022-09-05T06:18:42.601Z,18.67
2022-09-05T06:22:09.393Z,18.74
2022-09-05T06:25:22.064Z,18.85
2022-09-05T06:28:18.751Z,18.96
2022-09-05T06:31:22.543Z,19.09
2022-09-05T06:34:00.579Z,19.22
2022-09-05T06:36:57.982Z,19.32
2022-09-05T06:39:54.151Z,19.46
2022-09-05T06:42:42.643Z,19.58
2022-09-05T06:45:58.699Z,19.73
2022-09-05T06:48:46.033Z,19.87
2022-09-05T06:52:27.816Z,20.03
2022-09-05T06:55:35.103Z,20.17
2022-09-05T06:59:09.631Z,20.31
2022-09-05T07:01:59.937Z,20.44
2022-09-05T07:05:24.397Z,20.58
2022-09-05T07:07:42.455Z,20.70
2022-09-05T07:10:37.997Z,20.81
2022-09-05T07:13:16.429Z,20.92
2022-09-05T07:15:55.572Z,21.03
2022-09-05T07:18:34.904Z,21.16
2022-09-05T07:21:18.081Z,21.28
2022-09-05T07:24:08.978Z,21.39
2022-09-05T07:26:51.839Z,21.50
2022-09-05T07:29:28.067Z,21.59
2022-09-05T07:31:57.593Z,21.69
2022-09-05T07:34:30.220Z,21.80
2022-09-05T07:37:15.407Z,21.90
2022-09-05T07:39:51.711Z,22.03
2022-09-05T07:42:27.394Z,22.18
2022-09-05T07:44:59.566Z,22.34
2022-09-05T07:47:31.754Z,22.50
2022-09-05T07:51:07.688Z,22.64
2022-09-05T07:56:56.861Z,22.78
2022-09-05T07:57:00.664Z,22.92
2022-09-05T07:58:49.689Z,23.11
2022-09-05T08:01:22.828Z,23.23
2022-09-05T08:03:57.192Z,23.28
2022-09-05T08:06:48.001Z,23.25
2022-09-05T08:10:06.010Z,23.33
2022-09-05T08:12:18.073Z,23.51
2022-09-05T08:15:10.280Z,23.74
2022-09-05T08:17:58.587Z,23.89
2022-09-05T08:20:35.562Z,24.06
2022-09-05T08:23:14.195Z,24.23
2022-09-05T08:25:57.975Z,24.41
2022-09-05T08:28:38.862Z,24.56
2022-09-05T08:31:14.303Z,24.68
2022-09-05T08:33:43.449Z,24.84
2022-09-05T08:36:25.137Z,24.98
2022-09-05T08:38:54.211Z,25.15
2022-09-05T08:41:49.512Z,25.30
2022-09-05T08:46:43.069Z,25.44
2022-09-05T08:47:25.992Z,25.57
2022-09-05T08:50:26.862Z,25.72
2022-09-05T08:53:18.681Z,25.80
2022-09-05T08:56:10.174Z,25.90
2022-09-05T08:59:32.111Z,26.00
2022-09-05T09:02:45.283Z,26.14
2022-09-05T09:05:14.648Z,26.26
2022-09-05T09:07:51.346Z,26.37
2022-09-05T09:10:40.645Z,26.47
2022-09-05T09:13:28.545Z,26.54
2022-09-05T09:16:06.530Z,26.63
2022-09-05T09:19:00.260Z,26.75
2022-09-05T09:21:37.432Z,26.87
2022-09-05T09:24:20.760Z,26.95
2022-09-05T09:26:56.674Z,27.07
2022-09-05T09:29:26.732Z,27.19
2022-09-05T09:32:07.230Z,27.34
2022-09-05T09:34:58.268Z,27.53
2022-09-05T09:37:59.638Z,27.73
2022-09-05T09:41:07.877Z,27.85
2022-09-05T09:44:03.481Z,28.02
2022-09-05T09:46:41.979Z,28.15
2022-09-05T09:49:43.573Z,28.28
2022-09-05T09:53:27.503Z,28.46
2022-09-05T09:56:39.600Z,28.61
2022-09-05T09:59:30.067Z,28.74
2022-09-05T10:04:54.282Z,28.85
2022-09-05T10:10:39.305Z,29.04
2022-09-05T10:10:51.893Z,29.15
2022-09-05T10:12:15.729Z,29.19
2022-09-05T10:15:06.538Z,29.29
2022-09-05T10:18:33.400Z,29.47
2022-09-05T10:22:34.472Z,29.69
2022-09-05T10:25:16.506Z,29.88
2022-09-05T10:28:06.650Z,30.02
2022-09-05T10:32:25.972Z,30.18
2022-09-05T10:35:05.902Z,30.26
2022-09-05T10:36:31.242Z,30.35
2022-09-05T10:39:16.641Z,30.44
2022-09-05T10:41:51.030Z,30.58
2022-09-05T10:44:32.029Z,30.72
2022-09-05T10:47:12.116Z,30.75
2022-09-05T10:49:45.343Z,30.78
2022-09-05T10:52:22.530Z,30.82
2022-09-05T10:55:18.610Z,30.81
2022-09-05T10:58:05.574Z,30.85
2022-09-05T11:02:22.026Z,30.90
2022-09-05T11:03:53.811Z,31.01
2022-09-05T11:06:44.977Z,31.08
2022-09-05T11:09:26.067Z,31.19
2022-09-05T11:12:05.688Z,31.22
2022-09-05T11:14:49.401Z,31.28
2022-09-05T11:17:30.514Z,31.37
2022-09-05T11:20:35.383Z,31.48
2022-09-05T11:23:12.714Z,31.55
2022-09-05T11:25:41.487Z,31.64
2022-09-05T11:28:17.157Z,31.74
2022-09-05T11:30:54.225Z,31.86
2022-09-05T11:39:46.222Z,32.02
2022-09-05T11:40:02.804Z,32.28
2022-09-05T11:40:31.418Z,32.53
2022-09-05T11:43:51.592Z,32.69
2022-09-05T11:46:38.198Z,32.98
2022-09-05T11:49:52.763Z,33.35
2022-09-05T11:52:59.419Z,33.73
2022-09-05T11:56:00.958Z,34.16
2022-09-05T11:59:07.882Z,34.63
2022-09-05T12:01:51.595Z,35.12
2022-09-05T12:04:41.913Z,35.58
2022-09-05T12:07:35.439Z,35.89
2022-09-05T12:10:45.753Z,36.37
2022-09-05T12:13:32.190Z,36.93
2022-09-05T12:16:08.278Z,37.27
2022-09-05T12:18:48.969Z,37.34
2022-09-05T12:21:31.862Z,37.42
2022-09-05T12:25:16.860Z,37.61
2022-09-05T12:27:44.199Z,37.91
2022-09-05T12:30:00.257Z,38.33
2022-09-05T12:36:04.903Z,38.48
2022-09-05T12:36:05.483Z,38.60
2022-09-05T12:40:54.550Z,38.82
2022-09-05T12:41:45.266Z,39.14
2022-09-05T12:44:44.293Z,39.60
2022-09-05T12:47:17.075Z,39.85
2022-09-05T12:50:02.942Z,40.10
2022-09-05T12:52:44.126Z,40.54
2022-09-05T12:55:22.383Z,41.02
2022-09-05T13:02:55.277Z,41.44
2022-09-05T13:03:06.578Z,41.58
2022-09-05T13:04:16.081Z,41.52
2022-09-05T13:06:42.491Z,41.72
2022-09-05T13:09:22.329Z,41.93
2022-09-05T13:14:54.225Z,41.79
2022-09-05T13:15:11.523Z,41.77
2022-09-05T13:17:52.244Z,41.81
2022-09-05T13:20:32.453Z,41.45
2022-09-05T13:23:07.825Z,41.96
2022-09-05T13:25:37.844Z,42.28
2022-09-05T13:28:11.045Z,41.47
2022-09-05T13:37:54.659Z,40.47
2022-09-05T13:37:58.028Z,40.52
2022-09-05T13:38:04.720Z,40.08
2022-09-05T13:39:28.175Z,40.98
2022-09-05T13:42:03.621Z,41.15
2022-09-05T13:44:40.367Z,41.22
2022-09-05T13:47:29.733Z,41.22
2022-09-05T13:50:20.056Z,41.04
2022-09-05T13:52:55.351Z,41.25
2022-09-05T13:55:44.069Z,41.94
2022-09-05T13:58:21.542Z,42.31
2022-09-05T14:01:34.922Z,42.67
2022-09-05T14:05:16.306Z,43.38
2022-09-05T14:08:34.388Z,43.88
2022-09-05T14:11:48.807Z,43.28
2022-09-05T14:17:51.101Z,42.81
2022-09-05T14:20:37.581Z,41.57
2022-09-05T14:23:10.052Z,41.73
2022-09-05T14:25:42.871Z,43.12
2022-09-05T14:28:19.159Z,44.20
2022-09-05T14:34:52.016Z,44.86
2022-09-05T14:37:42.241Z,46.27
2022-09-05T14:37:59.995Z,45.63
2022-09-05T14:40:29.789Z,46.56
2022-09-05T14:43:47.521Z,46.41
2022-09-05T14:46:49.723Z,46.05
2022-09-05T14:49:53.252Z,44.89
2022-09-05T14:52:26.656Z,43.87
2022-09-05T15:02:43.970Z,42.01
2022-09-05T15:02:52.912Z,40.95
2022-09-05T15:06:38.222Z,39.45
2022-09-05T15:11:24.802Z,38.82
2022-09-05T15:12:19.781Z,38.22
2022-09-05T15:15:13.824Z,38.09
2022-09-05T15:17:48.426Z,37.67
2022-09-05T15:20:35.813Z,36.99
2022-09-05T15:23:16.332Z,36.89
2022-09-05T15:25:48.774Z,37.00
2022-09-05T15:28:23.083Z,37.10
2022-09-05T15:31:12.481Z,37.60
2022-09-05T15:33:43.923Z,37.91
2022-09-05T15:36:17.239Z,38.14
2022-09-05T15:38:54.401Z,38.39
2022-09-05T15:41:25.304Z,38.65
2022-09-05T15:44:01.711Z,38.91
2022-09-05T15:46:49.222Z,39.05
2022-09-05T15:49:32.892Z,39.02
2022-09-05T15:52:07.762Z,39.00
2022-09-05T15:54:42.907Z,38.98
2022-09-05T15:57:20.293Z,38.61
2022-09-05T15:59:58.696Z,38.03
2022-09-05T16:02:31.757Z,37.39
2022-09-05T16:08:12.139Z,36.84
2022-09-05T16:10:41.559Z,36.67
2022-09-05T16:12:00.404Z,36.60
2022-09-05T16:14:22.385Z,36.69
2022-09-05T16:23:20.340Z,36.60
2022-09-05T16:23:23.754Z,36.99
2022-09-05T16:23:26.770Z,36.46
2022-09-05T16:25:36.174Z,37.95
2022-09-05T16:28:07.837Z,38.12
2022-09-05T16:30:38.302Z,37.99
2022-09-05T16:33:14.675Z,37.71
2022-09-05T16:35:51.105Z,37.26
2022-09-05T16:38:48.552Z,37.04
2022-09-05T16:41:24.969Z,37.12
2022-09-05T16:43:57.954Z,37.02
2022-09-05T16:46:34.796Z,37.02
2022-09-05T16:49:11.728Z,36.97
2022-09-05T16:51:45.569Z,36.67
2022-09-05T16:54:30.909Z,36.12
2022-09-05T16:57:07.268Z,35.46
2022-09-05T16:59:39.146Z,34.86
2022-09-05T17:02:10.750Z,34.41
2022-09-05T17:05:04.813Z,33.92
2022-09-05T17:07:52.964Z,33.44
2022-09-05T17:10:25.723Z,33.08
2022-09-05T17:12:56.508Z,32.72
2022-09-05T17:15:29.006Z,32.39
2022-09-05T17:18:19.519Z,32.06
2022-09-05T17:20:56.182Z,31.74
2022-09-05T17:29:16.696Z,31.54
2022-09-05T17:29:45.518Z,31.26
2022-09-05T17:32:48.254Z,30.70
2022-09-05T17:35:42.884Z,30.43
2022-09-05T17:38:49.492Z,30.12
2022-09-05T17:42:02.181Z,29.83
2022-09-05T17:44:42.864Z,29.59
2022-09-05T17:47:35.354Z,29.37
2022-09-05T17:50:18.891Z,29.14
2022-09-05T17:53:26.291Z,28.93
2022-09-05T17:56:34.813Z,28.66
2022-09-05T17:59:07.328Z,28.50
2022-09-05T18:01:37.189Z,28.36
2022-09-05T18:04:17.990Z,28.20
2022-09-05T18:06:59.965Z,28.05
2022-09-05T18:09:59.021Z,27.87
2022-09-05T18:13:12.451Z,27.75
2022-09-05T18:16:12.589Z,27.55
2022-09-05T18:19:28.658Z,27.45
2022-09-05T18:21:50.520Z,27.34
2022-09-05T18:24:33.532Z,27.24
2022-09-05T18:28:03.436Z,27.17
2022-09-05T18:30:11.454Z,27.11
2022-09-05T18:32:45.109Z,27.06
2022-09-05T18:35:37.871Z,26.98
2022-09-05T18:38:51.968Z,26.88
2022-09-05T18:41:18.264Z,26.77
2022-09-05T18:44:01.622Z,26.65
2022-09-05T18:46:45.981Z,26.51
2022-09-05T18:50:22.001Z,26.40
2022-09-05T18:52:16.606Z,26.26
2022-09-05T18:56:09.323Z,26.16
2022-09-05T18:57:50.466Z,26.07
2022-09-05T19:00:33.314Z,25.96
2022-09-05T19:03:18.672Z,25.85
2022-09-05T19:05:51.983Z,25.76
2022-09-05T19:08:29.210Z,25.69
2022-09-05T19:11:27.553Z,25.62
2022-09-05T19:13:58.484Z,25.55
2022-09-05T19:16:47.839Z,25.48
2022-09-05T19:19:19.441Z,25.44
2022-09-05T19:22:39.582Z,25.40
2022-09-05T19:24:47.845Z,25.35
2022-09-05T19:28:44.455Z,25.33
2022-09-05T19:36:44.396Z,25.33
2022-09-05T19:37:03.786Z,25.26
2022-09-05T19:37:06.087Z,25.29
2022-09-05T19:38:55.079Z,25.22
2022-09-05T19:47:35.257Z,25.20
2022-09-05T19:47:48.946Z,25.14
2022-09-05T19:47:56.533Z,25.09
2022-09-05T19:50:22.114Z,25.02
2022-09-05T19:52:54.279Z,24.98
2022-09-05T19:55:26.057Z,24.94
2022-09-05T19:58:19.103Z,24.91
2022-09-05T20:01:00.625Z,24.85
2022-09-05T20:03:38.439Z,24.80
2022-09-05T20:06:29.243Z,24.75
2022-09-05T20:09:14.628Z,24.69
2022-09-05T20:11:49.587Z,24.65
2022-09-05T20:14:26.870Z,24.62
2022-09-05T20:16:58.770Z,24.60
2022-09-05T20:19:33.994Z,24.55
2022-09-05T20:22:46.717Z,24.52
2022-09-05T20:24:56.459Z,24.48
2022-09-05T20:27:28.841Z,24.42
2022-09-05T20:30:02.333Z,24.35
2022-09-05T20:32:39.979Z,24.28
2022-09-05T20:38:04.781Z,24.22
2022-09-05T20:43:17.029Z,24.14
2022-09-05T20:43:32.213Z,24.07
2022-09-05T20:43:58.971Z,24.00
2022-09-05T20:50:32.055Z,23.92
2022-09-05T20:54:23.021Z,23.87
2022-09-05T20:54:28.320Z,23.81
2022-09-05T20:55:38.461Z,23.77
2022-09-05T20:58:11.804Z,23.74
2022-09-05T21:01:11.665Z,23.70
2022-09-05T21:03:40.931Z,23.66
2022-09-05T21:06:25.640Z,23.62
2022-09-05T21:08:56.000Z,23.61
2022-09-05T21:11:32.377Z,23.59
2022-09-05T21:14:04.481Z,23.56
2022-09-05T21:16:36.623Z,23.53
2022-09-05T21:19:06.320Z,23.51
2022-09-05T21:21:36.759Z,23.49
2022-09-05T21:24:17.360Z,23.46
2022-09-05T21:26:49.029Z,23.44
2022-09-05T21:29:32.655Z,23.41
2022-09-05T21:32:10.467Z,23.37
2022-09-05T21:34:45.307Z,23.35
2022-09-05T21:37:15.815Z,23.34
2022-09-05T21:40:00.351Z,23.28
2022-09-05T21:47:21.674Z,23.27
2022-09-05T21:47:48.685Z,23.23
2022-09-05T21:48:13.186Z,23.20
2022-09-05T21:50:46.849Z,23.20
2022-09-05T21:57:18.442Z,23.16
2022-09-05T21:59:26.654Z,23.15
2022-09-05T21:59:36.676Z,23.12
2022-09-05T22:02:08.764Z,23.10
2022-09-05T22:04:41.532Z,23.07
2022-09-05T22:07:31.709Z,23.06
2022-09-05T22:10:01.627Z,23.01
2022-09-05T22:12:33.529Z,22.97
2022-09-05T22:15:10.104Z,22.96
2022-09-05T22:17:54.208Z,22.92
2022-09-05T22:20:43.194Z,22.89
2022-09-05T22:23:13.096Z,22.86
2022-09-05T22:25:41.587Z,22.85
2022-09-05T22:28:15.832Z,22.81
2022-09-05T22:30:44.429Z,22.79
2022-09-05T22:33:13.021Z,22.75
2022-09-05T22:35:41.844Z,22.72
2022-09-05T22:38:17.821Z,22.66
2022-09-05T22:40:49.321Z,22.63
2022-09-05T22:43:17.762Z,22.59
2022-09-05T22:45:45.875Z,22.55
2022-09-05T22:48:15.695Z,22.51
2022-09-05T22:50:44.286Z,22.48
2022-09-05T22:53:13.806Z,22.45
2022-09-05T22:55:44.365Z,22.41
2022-09-05T22:58:15.254Z,22.38
2022-09-05T23:00:44.165Z,22.36
2022-09-05T23:03:12.340Z,22.33
2022-09-05T23:05:40.580Z,22.31
2022-09-05T23:08:10.086Z,22.27
2022-09-05T23:10:39.728Z,22.28
2022-09-05T23:13:10.284Z,22.27
2022-09-05T23:15:40.024Z,22.25
2022-09-05T23:18:08.282Z,22.23
2022-09-05T23:20:36.395Z,22.21
2022-09-05T23:23:06.930Z,22.20
2022-09-05T23:25:36.659Z,22.17
2022-09-05T23:28:09.287Z,22.14
2022-09-05T23:30:38.410Z,22.13
2022-09-05T23:33:08.642Z,22.10
2022-09-05T23:35:37.250Z,22.06
2022-09-05T23:38:11.280Z,22.01
2022-09-05T23:40:39.918Z,21.96
2022-09-05T23:43:10.041Z,21.91
2022-09-05T23:45:38.132Z,21.86
2022-09-05T23:48:06.397Z,21.82
2022-09-05T23:50:34.574Z,21.79
2022-09-05T23:53:05.212Z,21.75
2022-09-05T23:55:33.600Z,21.74
2022-09-05T23:58:01.868Z,21.71
